KECG/ECG METAR and TAF weather

Enter ICAO airport designator
Station Type Date Time Source
KECG METAR 2022/07/03 14:24 UTC NOAA

KECG 031424Z 02005KT 10SM SCT026 29/23 A3000 RMK AO2 T02940228


Station Type Date Time Source
KECG Decoded METAR 2022/07/03 14:24 UTC NOAA

ELIZABETH CITY C/G REGN AIRPORT , NC, United States (KECG) 36-15N 076-10W 11M
Jul 03, 2022 - 10:24 AM EDT / 2022.07.03 1424 UTC
Wind: from the NNE (020 degrees) at 6 MPH (5 KT):0
Visibility: 10 mile(s):0
Sky conditions: partly cloudy
Temperature: 84.9 F (29.4 C)
Dew Point: 73.0 F (22.8 C)
Relative Humidity: 67%
Pressure (altimeter): 30 in. Hg (1015 hPa)
ob: KECG 031424Z 02005KT 10SM SCT026 29/23 A3000 RMK AO2 T02940228
cycle: 14

Station Type Date Time Source
KECG TAF 2022/07/03 12:58 UTC NOAA

TAF COR KECG 031158Z 0312/0412 20003KT P6SM SCT019 BKN070
TEMPO 0312/0313 SCT013 BKN019
FM031300 17005KT P6SM BKN070
FM031700 10004KT P6SM VCTS SCT080CB
FM040000 05006KT P6SM BKN120
FM040300 01004KT P6SM SKC

Example: see airport list